KAFW/AFW METAR and TAF weather

Enter ICAO airport designator
Station Type Date Time Source
KAFW METAR 2022/12/10 02:53 UTC NOAA

KAFW 100253Z 11009KT 5SM BR OVC005 17/16 A3005 RMK AO2 SLP172 T01670161 58002


Station Type Date Time Source
KAFW Decoded METAR 2022/12/10 02:53 UTC NOAA

FORT WORTH ALLIANCE AIRPORT, TX, United States (KAFW) 32-59N 097-19W 233M
Dec 09, 2022 - 09:53 PM EST / 2022.12.10 0253 UTC
Wind: from the ESE (110 degrees) at 10 MPH (9 KT):0
Visibility: 5 mile(s):0
Sky conditions: overcast
Weather: mist
Temperature: 62.1 F (16.7 C)
Dew Point: 61.0 F (16.1 C)
Relative Humidity: 96%
Pressure (altimeter): 30.05 in. Hg (1017 hPa)
Pressure tendency: 0.01 inches (0.2 hPa) lower than three hours ago
ob: KAFW 100253Z 11009KT 5SM BR OVC005 17/16 A3005 RMK AO2 SLP172 T01670161 58002
cycle: 3

Station Type Date Time Source
KAFW TAF 2022/12/10 03:58 UTC NOAA

TAF
AMD KAFW 100257Z 1003/1024 09006KT 4SM BR OVC007
TEMPO 1004/1008 2SM BR OVC004
FM100900 16007KT 4SM BR VCSH OVC007
TEMPO 1011/1013 2SM BR BKN004
FM101600 17007KT P6SM VCSH OVC010
FM101900 18007KT 5SM -SHRA BR VCTS OVC010CB
FM102200 36010KT 6SM -SHRA BR VCTS OVC012CB

Example: see airport list